sensor_id;sensor_type;location;lat;lon;timestamp;temperature;humidity
46590;DHT22;32313;48.722;9.362;2023-07-16T00:01:30;18.70;99.90
46590;DHT22;32313;48.722;9.362;2023-07-16T00:03:56;18.70;99.90
46590;DHT22;32313;48.722;9.362;2023-07-16T00:06:21;18.80;99.90
46590;DHT22;32313;48.722;9.362;2023-07-16T00:08:47;18.70;99.90
46590;DHT22;32313;48.722;9.362;2023-07-16T00:11:13;18.70;99.90
46590;DHT22;32313;48.722;9.362;2023-07-16T00:13:38;18.70;99.90
46590;DHT22;32313;48.722;9.362;2023-07-16T00:16:06;18.70;99.90
46590;DHT22;32313;48.722;9.362;2023-07-16T00:18:32;18.60;99.90
46590;DHT22;32313;48.722;9.362;2023-07-16T00:20:58;18.60;99.90
46590;DHT22;32313;48.722;9.362;2023-07-16T00:23:23;18.50;99.90
46590;DHT22;32313;48.722;9.362;2023-07-16T00:25:49;18.50;99.90
46590;DHT22;32313;48.722;9.362;2023-07-16T00:28:15;18.50;99.90
46590;DHT22;32313;48.722;9.362;2023-07-16T00:30:40;18.50;99.90
46590;DHT22;32313;48.722;9.362;2023-07-16T00:33:07;18.40;99.90
46590;DHT22;32313;48.722;9.362;2023-07-16T00:35:33;18.40;99.90
46590;DHT22;32313;48.722;9.362;2023-07-16T00:37:59;18.40;99.90
46590;DHT22;32313;48.722;9.362;2023-07-16T00:40:24;18.40;99.90
46590;DHT22;32313;48.722;9.362;2023-07-16T00:42:50;18.40;99.90
46590;DHT22;32313;48.722;9.362;2023-07-16T00:45:16;18.40;99.90
46590;DHT22;32313;48.722;9.362;2023-07-16T00:47:42;18.40;99.90
46590;DHT22;32313;48.722;9.362;2023-07-16T00:50:10;18.30;99.90
46590;DHT22;32313;48.722;9.362;2023-07-16T00:52:37;18.30;99.90
46590;DHT22;32313;48.722;9.362;2023-07-16T00:55:03;18.30;99.90
46590;DHT22;32313;48.722;9.362;2023-07-16T00:57:29;18.20;99.90
46590;DHT22;32313;48.722;9.362;2023-07-16T00:59:55;18.20;99.90
46590;DHT22;32313;48.722;9.362;2023-07-16T01:02:22;18.20;99.90
46590;DHT22;32313;48.722;9.362;2023-07-16T01:04:48;18.20;99.90
46590;DHT22;32313;48.722;9.362;2023-07-16T01:07:14;18.20;99.90
46590;DHT22;32313;48.722;9.362;2023-07-16T01:09:45;18.30;99.90
46590;DHT22;32313;48.722;9.362;2023-07-16T01:12:11;18.30;99.90
46590;DHT22;32313;48.722;9.362;2023-07-16T01:14:39;18.30;99.90
46590;DHT22;32313;48.722;9.362;2023-07-16T01:17:06;18.20;99.90
46590;DHT22;32313;48.722;9.362;2023-07-16T01:19:33;18.20;99.90
46590;DHT22;32313;48.722;9.362;2023-07-16T01:30:27;18.20;99.90
46590;DHT22;32313;48.722;9.362;2023-07-16T01:32:55;18.20;99.90
46590;DHT22;32313;48.722;9.362;2023-07-16T01:35:21;18.20;99.90
46590;DHT22;32313;48.722;9.362;2023-07-16T01:37:47;18.20;99.90
46590;DHT22;32313;48.722;9.362;2023-07-16T01:40:13;18.20;99.90
46590;DHT22;32313;48.722;9.362;2023-07-16T01:42:40;18.20;99.90
46590;DHT22;32313;48.722;9.362;2023-07-16T01:45:06;18.20;99.90
46590;DHT22;32313;48.722;9.362;2023-07-16T01:50:49;18.20;99.90
46590;DHT22;32313;48.722;9.362;2023-07-16T01:53:14;18.20;99.90
46590;DHT22;32313;48.722;9.362;2023-07-16T01:55:40;18.20;99.90
46590;DHT22;32313;48.722;9.362;2023-07-16T01:58:06;18.20;99.90
46590;DHT22;32313;48.722;9.362;2023-07-16T02:00:31;18.20;99.90
46590;DHT22;32313;48.722;9.362;2023-07-16T02:02:57;18.20;99.90
46590;DHT22;32313;48.722;9.362;2023-07-16T02:05:23;18.20;99.90
46590;DHT22;32313;48.722;9.362;2023-07-16T02:07:48;18.20;99.90
46590;DHT22;32313;48.722;9.362;2023-07-16T02:10:14;18.20;99.90
46590;DHT22;32313;48.722;9.362;2023-07-16T02:12:40;18.10;99.90
46590;DHT22;32313;48.722;9.362;2023-07-16T02:15:06;18.10;99.90
46590;DHT22;32313;48.722;9.362;2023-07-16T02:17:35;18.10;99.90
46590;DHT22;32313;48.722;9.362;2023-07-16T02:20:01;18.10;99.90
46590;DHT22;32313;48.722;9.362;2023-07-16T02:22:29;18.10;99.90
46590;DHT22;32313;48.722;9.362;2023-07-16T02:24:56;18.10;99.90
46590;DHT22;32313;48.722;9.362;2023-07-16T02:27:22;18.10;99.90
46590;DHT22;32313;48.722;9.362;2023-07-16T02:29:47;18.10;99.90
46590;DHT22;32313;48.722;9.362;2023-07-16T02:32:13;18.10;99.90
46590;DHT22;32313;48.722;9.362;2023-07-16T02:34:40;18.10;99.90
46590;DHT22;32313;48.722;9.362;2023-07-16T02:37:06;18.10;99.90
46590;DHT22;32313;48.722;9.362;2023-07-16T02:39:32;17.90;99.90
46590;DHT22;32313;48.722;9.362;2023-07-16T02:41:57;17.70;99.90
46590;DHT22;32313;48.722;9.362;2023-07-16T02:44:23;17.60;99.90
46590;DHT22;32313;48.722;9.362;2023-07-16T02:46:49;17.50;99.90
46590;DHT22;32313;48.722;9.362;2023-07-16T02:49:15;17.50;99.90
46590;DHT22;32313;48.722;9.362;2023-07-16T02:51:40;17.30;99.90
46590;DHT22;32313;48.722;9.362;2023-07-16T02:54:06;17.10;99.90
46590;DHT22;32313;48.722;9.362;2023-07-16T02:56:32;17.00;99.90
46590;DHT22;32313;48.722;9.362;2023-07-16T02:58:57;16.80;99.90
46590;DHT22;32313;48.722;9.362;2023-07-16T03:01:23;16.70;99.90
46590;DHT22;32313;48.722;9.362;2023-07-16T03:03:49;16.50;99.90
46590;DHT22;32313;48.722;9.362;2023-07-16T03:06:16;16.40;99.90
46590;DHT22;32313;48.722;9.362;2023-07-16T03:08:41;16.30;99.90
46590;DHT22;32313;48.722;9.362;2023-07-16T03:11:08;16.20;99.90
46590;DHT22;32313;48.722;9.362;2023-07-16T03:13:33;16.10;99.90
46590;DHT22;32313;48.722;9.362;2023-07-16T03:15:59;16.10;99.90
46590;DHT22;32313;48.722;9.362;2023-07-16T03:18:29;16.10;99.90
46590;DHT22;32313;48.722;9.362;2023-07-16T03:20:55;16.00;99.90
46590;DHT22;32313;48.722;9.362;2023-07-16T03:23:21;15.90;99.90
46590;DHT22;32313;48.722;9.362;2023-07-16T03:25:47;15.90;99.90
46590;DHT22;32313;48.722;9.362;2023-07-16T03:28:13;15.80;99.90
46590;DHT22;32313;48.722;9.362;2023-07-16T03:30:39;15.80;99.90
46590;DHT22;32313;48.722;9.362;2023-07-16T03:33:05;15.70;99.90
46590;DHT22;32313;48.722;9.362;2023-07-16T03:35:31;15.70;99.90
46590;DHT22;32313;48.722;9.362;2023-07-16T03:37:57;15.70;99.90
46590;DHT22;32313;48.722;9.362;2023-07-16T03:40:26;15.70;99.90
46590;DHT22;32313;48.722;9.362;2023-07-16T03:42:52;15.70;99.90
46590;DHT22;32313;48.722;9.362;2023-07-16T03:45:18;15.70;99.90
46590;DHT22;32313;48.722;9.362;2023-07-16T03:47:44;15.70;99.90
46590;DHT22;32313;48.722;9.362;2023-07-16T03:50:11;15.70;99.90
46590;DHT22;32313;48.722;9.362;2023-07-16T03:52:37;15.70;99.90
46590;DHT22;32313;48.722;9.362;2023-07-16T03:55:02;15.80;99.90
46590;DHT22;32313;48.722;9.362;2023-07-16T03:57:29;15.80;99.90
46590;DHT22;32313;48.722;9.362;2023-07-16T03:59:55;15.90;99.90
46590;DHT22;32313;48.722;9.362;2023-07-16T04:02:21;15.90;99.90
46590;DHT22;32313;48.722;9.362;2023-07-16T04:04:47;16.00;99.90
46590;DHT22;32313;48.722;9.362;2023-07-16T04:07:12;16.00;99.90
46590;DHT22;32313;48.722;9.362;2023-07-16T04:09:38;16.00;99.90
46590;DHT22;32313;48.722;9.362;2023-07-16T04:12:05;15.90;99.90
46590;DHT22;32313;48.722;9.362;2023-07-16T04:14:32;16.00;99.90
46590;DHT22;32313;48.722;9.362;2023-07-16T04:16:57;16.00;99.90
46590;DHT22;32313;48.722;9.362;2023-07-16T04:19:23;16.00;99.90
46590;DHT22;32313;48.722;9.362;2023-07-16T04:21:49;16.00;99.90
46590;DHT22;32313;48.722;9.362;2023-07-16T04:24:15;16.00;99.90
46590;DHT22;32313;48.722;9.362;2023-07-16T04:26:40;16.10;99.90
46590;DHT22;32313;48.722;9.362;2023-07-16T04:29:06;16.10;99.90
46590;DHT22;32313;48.722;9.362;2023-07-16T04:31:32;16.10;99.90
46590;DHT22;32313;48.722;9.362;2023-07-16T04:33:57;16.10;99.90
46590;DHT22;32313;48.722;9.362;2023-07-16T04:36:23;16.10;99.90
46590;DHT22;32313;48.722;9.362;2023-07-16T04:38:49;16.10;99.90
46590;DHT22;32313;48.722;9.362;2023-07-16T04:41:16;16.20;99.90
46590;DHT22;32313;48.722;9.362;2023-07-16T04:43:42;16.30;99.90
46590;DHT22;32313;48.722;9.362;2023-07-16T04:46:07;16.30;99.90
46590;DHT22;32313;48.722;9.362;2023-07-16T04:48:33;16.30;99.90
46590;DHT22;32313;48.722;9.362;2023-07-16T04:50:59;16.40;99.90
46590;DHT22;32313;48.722;9.362;2023-07-16T04:53:25;16.40;99.90
46590;DHT22;32313;48.722;9.362;2023-07-16T04:55:50;16.40;99.90
46590;DHT22;32313;48.722;9.362;2023-07-16T04:58:16;16.50;99.90
46590;DHT22;32313;48.722;9.362;2023-07-16T05:00:42;16.50;99.90
46590;DHT22;32313;48.722;9.362;2023-07-16T05:03:08;16.50;99.90
46590;DHT22;32313;48.722;9.362;2023-07-16T05:05:34;16.60;99.90
46590;DHT22;32313;48.722;9.362;2023-07-16T05:08:00;16.70;99.90
46590;DHT22;32313;48.722;9.362;2023-07-16T05:10:27;16.70;99.90
46590;DHT22;32313;48.722;9.362;2023-07-16T05:12:53;16.70;99.90
46590;DHT22;32313;48.722;9.362;2023-07-16T05:15:19;16.60;99.90
46590;DHT22;32313;48.722;9.362;2023-07-16T05:17:44;16.60;99.90
46590;DHT22;32313;48.722;9.362;2023-07-16T05:20:10;16.70;99.90
46590;DHT22;32313;48.722;9.362;2023-07-16T05:22:36;16.70;99.90
46590;DHT22;32313;48.722;9.362;2023-07-16T05:25:02;16.70;99.90
46590;DHT22;32313;48.722;9.362;2023-07-16T05:27:28;16.70;99.90
46590;DHT22;32313;48.722;9.362;2023-07-16T05:29:54;16.80;99.90
46590;DHT22;32313;48.722;9.362;2023-07-16T05:32:21;16.80;99.90
46590;DHT22;32313;48.722;9.362;2023-07-16T05:34:47;17.00;99.90
46590;DHT22;32313;48.722;9.362;2023-07-16T05:37:13;17.00;99.90
46590;DHT22;32313;48.722;9.362;2023-07-16T05:39:38;17.00;99.90
46590;DHT22;32313;48.722;9.362;2023-07-16T05:42:05;17.00;99.90
46590;DHT22;32313;48.722;9.362;2023-07-16T05:44:31;17.00;99.90
46590;DHT22;32313;48.722;9.362;2023-07-16T05:46:57;17.00;99.90
46590;DHT22;32313;48.722;9.362;2023-07-16T05:49:24;17.10;99.90
46590;DHT22;32313;48.722;9.362;2023-07-16T05:51:49;17.20;99.90
46590;DHT22;32313;48.722;9.362;2023-07-16T05:54:15;17.30;99.90
46590;DHT22;32313;48.722;9.362;2023-07-16T05:56:41;17.50;99.90
46590;DHT22;32313;48.722;9.362;2023-07-16T05:59:07;17.60;99.90
46590;DHT22;32313;48.722;9.362;2023-07-16T06:01:32;17.80;99.90
46590;DHT22;32313;48.722;9.362;2023-07-16T06:03:58;18.00;99.90
46590;DHT22;32313;48.722;9.362;2023-07-16T06:06:24;18.10;99.90
46590;DHT22;32313;48.722;9.362;2023-07-16T06:08:49;18.10;99.90
46590;DHT22;32313;48.722;9.362;2023-07-16T06:11:15;18.20;99.90
46590;DHT22;32313;48.722;9.362;2023-07-16T06:13:41;18.30;99.90
46590;DHT22;32313;48.722;9.362;2023-07-16T06:16:06;18.30;99.90
46590;DHT22;32313;48.722;9.362;2023-07-16T06:18:32;18.30;99.90
46590;DHT22;32313;48.722;9.362;2023-07-16T06:20:57;18.20;99.90
46590;DHT22;32313;48.722;9.362;2023-07-16T06:23:23;18.20;99.90
46590;DHT22;32313;48.722;9.362;2023-07-16T06:26:00;18.10;99.90
46590;DHT22;32313;48.722;9.362;2023-07-16T06:28:25;18.10;99.90
46590;DHT22;32313;48.722;9.362;2023-07-16T06:30:51;18.10;99.90
46590;DHT22;32313;48.722;9.362;2023-07-16T06:33:18;18.10;99.90
46590;DHT22;32313;48.722;9.362;2023-07-16T06:35:45;18.10;99.90
46590;DHT22;32313;48.722;9.362;2023-07-16T06:38:12;18.10;99.90
46590;DHT22;32313;48.722;9.362;2023-07-16T06:40:38;18.20;99.90
46590;DHT22;32313;48.722;9.362;2023-07-16T06:43:03;18.20;99.90
46590;DHT22;32313;48.722;9.362;2023-07-16T06:45:29;18.30;99.90
46590;DHT22;32313;48.722;9.362;2023-07-16T06:47:55;18.40;99.90
46590;DHT22;32313;48.722;9.362;2023-07-16T06:50:21;18.50;99.90
46590;DHT22;32313;48.722;9.362;2023-07-16T06:52:46;18.60;99.90
46590;DHT22;32313;48.722;9.362;2023-07-16T06:55:12;18.60;99.90
46590;DHT22;32313;48.722;9.362;2023-07-16T06:57:38;18.80;99.90
46590;DHT22;32313;48.722;9.362;2023-07-16T07:00:05;18.90;99.90
46590;DHT22;32313;48.722;9.362;2023-07-16T07:02:31;19.10;99.90
46590;DHT22;32313;48.722;9.362;2023-07-16T07:04:56;19.20;99.90
46590;DHT22;32313;48.722;9.362;2023-07-16T07:07:22;19.30;99.90
46590;DHT22;32313;48.722;9.362;2023-07-16T07:09:48;19.40;99.90
46590;DHT22;32313;48.722;9.362;2023-07-16T07:12:16;19.50;99.90
46590;DHT22;32313;48.722;9.362;2023-07-16T07:14:42;19.50;99.90
46590;DHT22;32313;48.722;9.362;2023-07-16T07:17:07;19.30;99.90
46590;DHT22;32313;48.722;9.362;2023-07-16T07:19:33;19.30;99.90
46590;DHT22;32313;48.722;9.362;2023-07-16T07:22:00;20.00;99.90
46590;DHT22;32313;48.722;9.362;2023-07-16T07:24:25;20.80;99.90
46590;DHT22;32313;48.722;9.362;2023-07-16T07:26:51;21.70;99.90
46590;DHT22;32313;48.722;9.362;2023-07-16T07:29:17;22.30;99.90
46590;DHT22;32313;48.722;9.362;2023-07-16T07:31:42;22.30;99.90
46590;DHT22;32313;48.722;9.362;2023-07-16T07:34:08;22.70;99.90
46590;DHT22;32313;48.722;9.362;2023-07-16T07:36:33;22.80;99.90
46590;DHT22;32313;48.722;9.362;2023-07-16T07:38:59;23.20;99.90
46590;DHT22;32313;48.722;9.362;2023-07-16T07:41:25;23.60;99.90
46590;DHT22;32313;48.722;9.362;2023-07-16T07:43:51;23.80;99.90
46590;DHT22;32313;48.722;9.362;2023-07-16T07:46:16;23.70;99.90
46590;DHT22;32313;48.722;9.362;2023-07-16T07:48:42;23.90;99.90
46590;DHT22;32313;48.722;9.362;2023-07-16T07:51:07;24.50;99.90
46590;DHT22;32313;48.722;9.362;2023-07-16T07:53:33;24.90;99.90
46590;DHT22;32313;48.722;9.362;2023-07-16T07:55:59;24.60;99.90
46590;DHT22;32313;48.722;9.362;2023-07-16T07:58:25;23.90;99.90
46590;DHT22;32313;48.722;9.362;2023-07-16T08:00:50;23.40;99.90
46590;DHT22;32313;48.722;9.362;2023-07-16T08:03:28;22.70;99.90
46590;DHT22;32313;48.722;9.362;2023-07-16T08:05:54;22.20;99.90
46590;DHT22;32313;48.722;9.362;2023-07-16T08:08:19;22.40;99.90
46590;DHT22;32313;48.722;9.362;2023-07-16T08:10:45;22.50;99.90
46590;DHT22;32313;48.722;9.362;2023-07-16T08:13:11;22.20;99.90
46590;DHT22;32313;48.722;9.362;2023-07-16T08:15:37;22.60;99.90
46590;DHT22;32313;48.722;9.362;2023-07-16T08:18:02;22.70;99.90
46590;DHT22;32313;48.722;9.362;2023-07-16T08:20:28;23.10;99.90
46590;DHT22;32313;48.722;9.362;2023-07-16T08:22:54;23.50;99.90
46590;DHT22;32313;48.722;9.362;2023-07-16T08:25:19;23.50;99.90
46590;DHT22;32313;48.722;9.362;2023-07-16T08:27:45;24.10;99.90
46590;DHT22;32313;48.722;9.362;2023-07-16T08:30:11;24.00;99.90
46590;DHT22;32313;48.722;9.362;2023-07-16T08:32:37;23.60;99.90
46590;DHT22;32313;48.722;9.362;2023-07-16T08:35:02;23.70;99.90
46590;DHT22;32313;48.722;9.362;2023-07-16T08:37:29;24.40;99.90
46590;DHT22;32313;48.722;9.362;2023-07-16T08:39:54;25.10;99.90
46590;DHT22;32313;48.722;9.362;2023-07-16T08:42:20;25.80;99.90
46590;DHT22;32313;48.722;9.362;2023-07-16T08:44:48;26.30;99.90
46590;DHT22;32313;48.722;9.362;2023-07-16T08:47:16;26.20;99.90
46590;DHT22;32313;48.722;9.362;2023-07-16T08:49:48;26.30;99.90
46590;DHT22;32313;48.722;9.362;2023-07-16T08:52:17;26.50;99.90
46590;DHT22;32313;48.722;9.362;2023-07-16T08:54:44;26.70;99.90
46590;DHT22;32313;48.722;9.362;2023-07-16T08:57:09;26.30;99.90
46590;DHT22;32313;48.722;9.362;2023-07-16T08:59:35;25.70;99.90
46590;DHT22;32313;48.722;9.362;2023-07-16T09:02:01;25.40;99.90
46590;DHT22;32313;48.722;9.362;2023-07-16T09:04:27;25.10;99.90
46590;DHT22;32313;48.722;9.362;2023-07-16T09:06:55;25.20;99.90
46590;DHT22;32313;48.722;9.362;2023-07-16T09:09:24;26.00;99.90
46590;DHT22;32313;48.722;9.362;2023-07-16T09:11:50;26.40;99.90
46590;DHT22;32313;48.722;9.362;2023-07-16T09:14:20;26.90;99.90
46590;DHT22;32313;48.722;9.362;2023-07-16T09:16:50;27.10;99.90
46590;DHT22;32313;48.722;9.362;2023-07-16T09:19:16;26.30;99.90
46590;DHT22;32313;48.722;9.362;2023-07-16T09:21:51;26.60;99.90
46590;DHT22;32313;48.722;9.362;2023-07-16T09:24:18;26.60;99.90
46590;DHT22;32313;48.722;9.362;2023-07-16T09:26:52;25.80;99.90
46590;DHT22;32313;48.722;9.362;2023-07-16T09:29:18;25.40;99.90
46590;DHT22;32313;48.722;9.362;2023-07-16T09:31:55;25.90;99.90
46590;DHT22;32313;48.722;9.362;2023-07-16T09:34:21;26.70;99.90
46590;DHT22;32313;48.722;9.362;2023-07-16T09:36:48;27.40;97.70
46590;DHT22;32313;48.722;9.362;2023-07-16T09:39:16;27.80;98.20
46590;DHT22;32313;48.722;9.362;2023-07-16T09:41:44;27.90;95.10
46590;DHT22;32313;48.722;9.362;2023-07-16T09:44:10;28.40;95.60
46590;DHT22;32313;48.722;9.362;2023-07-16T09:46:36;28.10;95.10
46590;DHT22;32313;48.722;9.362;2023-07-16T09:49:02;28.30;94.70
46590;DHT22;32313;48.722;9.362;2023-07-16T09:51:30;27.60;95.00
46590;DHT22;32313;48.722;9.362;2023-07-16T09:53:56;26.90;95.70
46590;DHT22;32313;48.722;9.362;2023-07-16T09:56:24;26.10;95.80
46590;DHT22;32313;48.722;9.362;2023-07-16T09:58:55;25.60;96.80
46590;DHT22;32313;48.722;9.362;2023-07-16T10:01:21;25.30;97.20
46590;DHT22;32313;48.722;9.362;2023-07-16T10:03:51;25.40;97.90
46590;DHT22;32313;48.722;9.362;2023-07-16T10:06:17;26.30;97.00
46590;DHT22;32313;48.722;9.362;2023-07-16T10:08:49;26.50;95.50
46590;DHT22;32313;48.722;9.362;2023-07-16T10:11:16;26.70;95.70
46590;DHT22;32313;48.722;9.362;2023-07-16T10:13:43;26.90;96.70
46590;DHT22;32313;48.722;9.362;2023-07-16T10:16:20;27.20;93.40
46590;DHT22;32313;48.722;9.362;2023-07-16T10:18:53;27.20;94.70
46590;DHT22;32313;48.722;9.362;2023-07-16T10:21:25;27.20;93.60
46590;DHT22;32313;48.722;9.362;2023-07-16T10:24:00;27.90;94.00
46590;DHT22;32313;48.722;9.362;2023-07-16T10:26:29;28.70;91.40
46590;DHT22;32313;48.722;9.362;2023-07-16T10:28:55;29.10;91.60
46590;DHT22;32313;48.722;9.362;2023-07-16T10:31:25;29.40;90.50
46590;DHT22;32313;48.722;9.362;2023-07-16T10:34:04;29.60;90.80
46590;DHT22;32313;48.722;9.362;2023-07-16T10:39:34;28.50;86.90
46590;DHT22;32313;48.722;9.362;2023-07-16T10:42:01;28.00;90.50
46590;DHT22;32313;48.722;9.362;2023-07-16T10:44:27;28.10;90.70
46590;DHT22;32313;48.722;9.362;2023-07-16T10:46:53;28.10;89.00
46590;DHT22;32313;48.722;9.362;2023-07-16T10:49:27;28.50;90.30
46590;DHT22;32313;48.722;9.362;2023-07-16T10:51:53;28.80;88.20
46590;DHT22;32313;48.722;9.362;2023-07-16T10:54:20;28.80;86.00
46590;DHT22;32313;48.722;9.362;2023-07-16T10:56:45;28.30;84.20
46590;DHT22;32313;48.722;9.362;2023-07-16T10:59:13;27.90;85.20
46590;DHT22;32313;48.722;9.362;2023-07-16T11:01:39;28.00;85.70
46590;DHT22;32313;48.722;9.362;2023-07-16T11:04:08;27.90;85.80
46590;DHT22;32313;48.722;9.362;2023-07-16T11:06:33;27.90;86.50
46590;DHT22;32313;48.722;9.362;2023-07-16T11:09:10;28.20;86.20
46590;DHT22;32313;48.722;9.362;2023-07-16T11:11:36;28.50;82.60
46590;DHT22;32313;48.722;9.362;2023-07-16T11:14:06;28.80;84.30
46590;DHT22;32313;48.722;9.362;2023-07-16T11:16:36;29.30;82.80
46590;DHT22;32313;48.722;9.362;2023-07-16T11:19:06;28.70;82.80
46590;DHT22;32313;48.722;9.362;2023-07-16T11:21:35;28.20;84.20
46590;DHT22;32313;48.722;9.362;2023-07-16T11:24:12;28.00;82.30
46590;DHT22;32313;48.722;9.362;2023-07-16T11:26:38;27.60;84.20
46590;DHT22;32313;48.722;9.362;2023-07-16T11:29:14;28.20;84.70
46590;DHT22;32313;48.722;9.362;2023-07-16T11:31:40;29.20;81.40
46590;DHT22;32313;48.722;9.362;2023-07-16T11:34:13;29.50;82.00
46590;DHT22;32313;48.722;9.362;2023-07-16T11:36:39;29.90;80.80
46590;DHT22;32313;48.722;9.362;2023-07-16T11:39:04;30.20;79.60
46590;DHT22;32313;48.722;9.362;2023-07-16T11:41:30;30.20;77.70
46590;DHT22;32313;48.722;9.362;2023-07-16T11:44:02;30.00;78.90
46590;DHT22;32313;48.722;9.362;2023-07-16T11:46:32;30.10;77.90
46590;DHT22;32313;48.722;9.362;2023-07-16T11:48:59;30.40;76.60
46590;DHT22;32313;48.722;9.362;2023-07-16T11:51:25;30.50;75.20
46590;DHT22;32313;48.722;9.362;2023-07-16T11:53:50;30.60;73.80
46590;DHT22;32313;48.722;9.362;2023-07-16T11:56:16;30.20;74.60
46590;DHT22;32313;48.722;9.362;2023-07-16T11:58:42;29.70;74.50
46590;DHT22;32313;48.722;9.362;2023-07-16T12:01:08;30.10;75.90
46590;DHT22;32313;48.722;9.362;2023-07-16T12:03:34;30.50;73.60
46590;DHT22;32313;48.722;9.362;2023-07-16T12:05:59;30.50;70.30
46590;DHT22;32313;48.722;9.362;2023-07-16T12:08:25;30.70;70.40
46590;DHT22;32313;48.722;9.362;2023-07-16T12:10:51;30.30;72.30
46590;DHT22;32313;48.722;9.362;2023-07-16T12:13:16;29.90;72.50
46590;DHT22;32313;48.722;9.362;2023-07-16T12:15:42;29.20;73.70
46590;DHT22;32313;48.722;9.362;2023-07-16T12:18:08;28.40;75.20
46590;DHT22;32313;48.722;9.362;2023-07-16T12:20:34;27.70;77.50
46590;DHT22;32313;48.722;9.362;2023-07-16T12:23:01;27.20;79.50
46590;DHT22;32313;48.722;9.362;2023-07-16T12:25:28;26.80;80.30
46590;DHT22;32313;48.722;9.362;2023-07-16T12:27:54;26.30;81.70
46590;DHT22;32313;48.722;9.362;2023-07-16T12:30:20;25.90;84.50
46590;DHT22;32313;48.722;9.362;2023-07-16T12:32:46;25.80;85.20
46590;DHT22;32313;48.722;9.362;2023-07-16T12:35:11;26.20;83.70
46590;DHT22;32313;48.722;9.362;2023-07-16T12:37:37;26.40;84.20
46590;DHT22;32313;48.722;9.362;2023-07-16T12:40:03;27.10;83.20
46590;DHT22;32313;48.722;9.362;2023-07-16T12:42:28;28.20;81.50
46590;DHT22;32313;48.722;9.362;2023-07-16T12:44:54;28.90;79.70
46590;DHT22;32313;48.722;9.362;2023-07-16T12:47:20;28.30;76.00
46590;DHT22;32313;48.722;9.362;2023-07-16T12:49:45;27.50;80.70
46590;DHT22;32313;48.722;9.362;2023-07-16T12:52:11;27.90;80.20
46590;DHT22;32313;48.722;9.362;2023-07-16T12:54:37;28.50;79.40
46590;DHT22;32313;48.722;9.362;2023-07-16T12:57:03;28.90;79.40
46590;DHT22;32313;48.722;9.362;2023-07-16T12:59:28;28.90;78.30
46590;DHT22;32313;48.722;9.362;2023-07-16T13:01:54;28.70;78.20
46590;DHT22;32313;48.722;9.362;2023-07-16T13:04:20;28.60;76.10
46590;DHT22;32313;48.722;9.362;2023-07-16T13:06:45;28.70;76.40
46590;DHT22;32313;48.722;9.362;2023-07-16T13:09:14;28.80;77.80
46590;DHT22;32313;48.722;9.362;2023-07-16T13:11:41;29.00;75.80
46590;DHT22;32313;48.722;9.362;2023-07-16T13:14:06;29.10;76.20
46590;DHT22;32313;48.722;9.362;2023-07-16T13:16:32;29.00;76.40
46590;DHT22;32313;48.722;9.362;2023-07-16T13:18:58;29.20;75.90
46590;DHT22;32313;48.722;9.362;2023-07-16T13:21:23;29.30;75.70
46590;DHT22;32313;48.722;9.362;2023-07-16T13:23:49;29.40;74.20
46590;DHT22;32313;48.722;9.362;2023-07-16T13:26:15;29.10;74.20
46590;DHT22;32313;48.722;9.362;2023-07-16T13:28:40;29.10;74.30
46590;DHT22;32313;48.722;9.362;2023-07-16T13:31:06;28.80;75.00
46590;DHT22;32313;48.722;9.362;2023-07-16T13:33:32;28.30;72.70
46590;DHT22;32313;48.722;9.362;2023-07-16T13:35:57;28.20;74.50
46590;DHT22;32313;48.722;9.362;2023-07-16T13:38:26;28.90;74.60
46590;DHT22;32313;48.722;9.362;2023-07-16T13:40:52;29.60;72.20
46590;DHT22;32313;48.722;9.362;2023-07-16T13:43:18;30.10;71.60
46590;DHT22;32313;48.722;9.362;2023-07-16T13:45:43;31.00;69.90
46590;DHT22;32313;48.722;9.362;2023-07-16T13:48:09;31.70;68.50
46590;DHT22;32313;48.722;9.362;2023-07-16T13:50:35;32.40;67.00
46590;DHT22;32313;48.722;9.362;2023-07-16T13:53:00;32.90;65.50
46590;DHT22;32313;48.722;9.362;2023-07-16T13:55:30;32.70;64.00
46590;DHT22;32313;48.722;9.362;2023-07-16T13:57:55;32.20;65.00
46590;DHT22;32313;48.722;9.362;2023-07-16T14:00:22;31.60;65.70
46590;DHT22;32313;48.722;9.362;2023-07-16T14:02:48;31.00;67.90
46590;DHT22;32313;48.722;9.362;2023-07-16T14:05:13;30.50;68.50
46590;DHT22;32313;48.722;9.362;2023-07-16T14:07:39;29.90;68.80
46590;DHT22;32313;48.722;9.362;2023-07-16T14:10:05;29.20;70.30
46590;DHT22;32313;48.722;9.362;2023-07-16T14:12:31;29.00;71.40
46590;DHT22;32313;48.722;9.362;2023-07-16T14:14:56;29.50;70.80
46590;DHT22;32313;48.722;9.362;2023-07-16T14:17:22;30.20;69.70
46590;DHT22;32313;48.722;9.362;2023-07-16T14:19:49;30.70;68.30
46590;DHT22;32313;48.722;9.362;2023-07-16T14:22:15;30.70;67.70
46590;DHT22;32313;48.722;9.362;2023-07-16T14:24:41;30.80;66.40
46590;DHT22;32313;48.722;9.362;2023-07-16T14:27:07;30.90;67.20
46590;DHT22;32313;48.722;9.362;2023-07-16T14:29:34;30.80;67.40
46590;DHT22;32313;48.722;9.362;2023-07-16T14:32:00;30.20;67.90
46590;DHT22;32313;48.722;9.362;2023-07-16T14:34:26;30.30;69.00
46590;DHT22;32313;48.722;9.362;2023-07-16T14:36:53;30.40;68.20
46590;DHT22;32313;48.722;9.362;2023-07-16T14:39:18;30.20;68.60
46590;DHT22;32313;48.722;9.362;2023-07-16T14:41:45;29.80;68.00
46590;DHT22;32313;48.722;9.362;2023-07-16T14:44:10;29.20;67.00
46590;DHT22;32313;48.722;9.362;2023-07-16T14:46:36;28.50;68.30
46590;DHT22;32313;48.722;9.362;2023-07-16T14:49:03;28.10;69.10
46590;DHT22;32313;48.722;9.362;2023-07-16T14:51:29;28.10;70.60
46590;DHT22;32313;48.722;9.362;2023-07-16T14:53:56;28.30;70.00
46590;DHT22;32313;48.722;9.362;2023-07-16T14:56:22;28.50;70.70
46590;DHT22;32313;48.722;9.362;2023-07-16T14:58:48;28.60;70.10
46590;DHT22;32313;48.722;9.362;2023-07-16T15:01:14;28.50;69.90
46590;DHT22;32313;48.722;9.362;2023-07-16T15:03:39;28.30;68.40
46590;DHT22;32313;48.722;9.362;2023-07-16T15:06:08;28.30;69.70
46590;DHT22;32313;48.722;9.362;2023-07-16T15:08:35;28.20;69.60
46590;DHT22;32313;48.722;9.362;2023-07-16T15:11:00;28.10;69.70
46590;DHT22;32313;48.722;9.362;2023-07-16T15:13:26;27.90;70.20
46590;DHT22;32313;48.722;9.362;2023-07-16T15:15:54;27.90;71.00
46590;DHT22;32313;48.722;9.362;2023-07-16T15:18:20;27.80;72.20
46590;DHT22;32313;48.722;9.362;2023-07-16T15:20:47;27.70;72.20
46590;DHT22;32313;48.722;9.362;2023-07-16T15:23:13;27.50;72.70
46590;DHT22;32313;48.722;9.362;2023-07-16T15:25:42;27.40;73.30
46590;DHT22;32313;48.722;9.362;2023-07-16T15:28:10;27.20;72.30
46590;DHT22;32313;48.722;9.362;2023-07-16T15:30:36;26.90;72.90
46590;DHT22;32313;48.722;9.362;2023-07-16T15:33:02;26.70;73.90
46590;DHT22;32313;48.722;9.362;2023-07-16T15:35:28;26.60;74.50
46590;DHT22;32313;48.722;9.362;2023-07-16T15:37:53;26.40;74.20
46590;DHT22;32313;48.722;9.362;2023-07-16T15:40:22;26.40;75.00